OTBH/IUD METAR and TAF weather

Enter ICAO airport designator
Station Type Date Time Source
OTBH METAR 2021/09/24 05:56 UTC NOAA

OTBH 240556Z AUTO 00000KT 9999 CLR 32/23 A2973 RMK AO2 SLP068 T03200227 10324 20248 52016 $


Station Type Date Time Source
OTBH Decoded METAR 2021/09/24 05:56 UTC NOAA

Station name not available
Sep 24, 2021 - 01:56 AM EDT / 2021.09.24 0556 UTC
Wind: Calm:0
Visibility: greater than 7 mile(s):0
Sky conditions: clear
Temperature: 89.6 F (32.0 C)
Heat index: 97.2 F (36.2 C):1
Dew Point: 72.9 F (22.7 C)
Relative Humidity: 57%
Pressure (altimeter): 29.73 in. Hg (1006 hPa)
Pressure tendency: 0.05 inches (1.6 hPa) higher than three hours ago
ob: OTBH 240556Z AUTO 00000KT 9999 CLR 32/23 A2973 RMK AO2 SLP068 T03200227 10324 20248 52016
cycle: 6

Station Type Date Time Source
OTBH TAF 2021/09/24 00:12 UTC NOAA

TAF TAF OTBH 240000Z 2400/2506 VRB06KT 9999 SKC QNH2963INS
BECMG 2405/2406 34009KT 9999 SKC QNH2971INS
BECMG 2409/2410 04012KT 9999 SKC QNH2963INS
TEMPO 2412/2415 04012G18KT
BECMG 2414/2415 08009KT 9999 SKC QNH2965INS
BECMG 2417/2418 06006KT 9999 SKC QNH2968INS TX40/2411Z TN25/2402Z

Example: see airport list